Time;durP1;ratioP1;P1;durP2;ratioP2;P2;SDS_P1;SDS_P2;PMS_P1;PMS_P2;Temp;Humidity;BMP_temperature;BMP_pressure;BME280_temperature;BME280_humidity;BME280_pressure;Samples;Min_cycle;Max_cycle;Signal;HPM_P1;HPM_P2
2021/09/04 00:01:58;;;;;;;11.67;9.23;;;;;;;12.80;100.00;100820.50;5131897;27;20186;-73
2021/09/04 00:04:23;;;;;;;11.97;8.97;;;;;;;12.85;100.00;100813.25;5131956;27;20535;-73
2021/09/04 00:06:49;;;;;;;14.67;9.13;;;;;;;13.05;100.00;100813.47;5113462;28;20192;-73
2021/09/04 00:09:14;;;;;;;15.77;9.93;;;;;;;13.31;100.00;100815.50;5131829;27;20222;-73
2021/09/04 00:11:39;;;;;;;13.40;9.03;;;;;;;13.48;100.00;100870.44;5131820;27;20183;-73
2021/09/04 00:14:05;;;;;;;11.63;8.87;;;;;;;13.56;100.00;100806.47;5131630;27;20211;-73
2021/09/04 00:16:30;;;;;;;10.00;9.00;;;;;;;13.50;100.00;100810.53;5131626;27;20201;-73
2021/09/04 00:18:55;;;;;;;11.07;8.40;;;;;;;13.51;100.00;100814.88;5131766;27;20178;-73
2021/09/04 00:21:20;;;;;;;10.50;9.03;;;;;;;13.53;100.00;100806.31;5131735;27;20228;-74
2021/09/04 00:23:46;;;;;;;15.03;9.07;;;;;;;13.57;100.00;100802.59;5131405;27;20255;-73
2021/09/04 00:26:11;;;;;;;18.60;9.57;;;;;;;13.60;100.00;100807.47;5131580;27;20291;-73
2021/09/04 00:28:36;;;;;;;12.80;8.20;;;;;;;13.65;100.00;100810.03;5113141;27;20271;-73
2021/09/04 00:31:02;;;;;;;10.03;7.97;;;;;;;13.62;100.00;100809.88;5131201;28;20169;-73
2021/09/04 00:33:27;;;;;;;13.20;8.13;;;;;;;13.59;100.00;100814.06;5131909;28;20176;-73
2021/09/04 00:35:53;;;;;;;9.63;8.47;;;;;;;13.68;100.00;100814.06;5131291;28;20190;-73
2021/09/04 00:38:18;;;;;;;11.73;7.87;;;;;;;13.37;100.00;100809.53;5131562;27;20179;-73
2021/09/04 00:40:44;;;;;;;14.20;9.43;;;;;;;13.02;100.00;100805.91;5131544;27;20636;-73
2021/09/04 00:43:10;;;;;;;16.17;9.90;;;;;;;12.91;100.00;100810.06;5113223;28;20561;-73
2021/09/04 00:45:35;;;;;;;13.23;10.30;;;;;;;12.91;100.00;100799.09;5131384;28;20168;-73
2021/09/04 00:48:04;;;;;;;12.60;9.00;;;;;;;13.05;100.00;100809.94;5131342;28;20277;-73
2021/09/04 00:50:31;;;;;;;14.03;9.80;;;;;;;12.81;100.00;100807.59;5131726;28;20179;-73
2021/09/04 00:52:57;;;;;;;11.77;9.53;;;;;;;12.64;100.00;100802.84;5131206;28;20184;-74
2021/09/04 00:55:23;;;;;;;13.97;9.47;;;;;;;12.82;100.00;100804.53;5131648;28;20254;-73
2021/09/04 00:57:49;;;;;;;14.07;10.03;;;;;;;12.82;100.00;100804.53;5131374;28;20183;-73
2021/09/04 01:00:15;;;;;;;16.53;9.67;;;;;;;12.67;100.00;100804.97;5131365;28;20238;-74
2021/09/04 01:02:40;;;;;;;18.23;9.93;;;;;;;12.69;100.00;100807.38;5131471;28;20205;-73
2021/09/04 01:05:07;;;;;;;17.83;10.23;;;;;;;12.68;100.00;100806.56;5131039;27;20544;-74
2021/09/04 01:07:33;;;;;;;21.53;11.53;;;;;;;12.60;100.00;100798.31;5131267;28;20197;-73
2021/09/04 01:09:58;;;;;;;12.00;10.70;;;;;;;12.80;100.00;100808.72;5131584;28;20172;-73
2021/09/04 01:12:24;;;;;;;13.30;9.47;;;;;;;12.79;100.00;100799.69;5131230;28;20183;-74
2021/09/04 01:14:49;;;;;;;22.23;10.20;;;;;;;12.65;100.00;100804.47;5131057;28;20660;-73
2021/09/04 01:17:15;;;;;;;12.17;9.17;;;;;;;12.85;100.00;100796.78;5131067;28;20173;-74
2021/09/04 01:19:40;;;;;;;22.07;10.20;;;;;;;12.71;100.00;100808.66;5131034;27;20607;-74
2021/09/04 01:22:06;;;;;;;13.23;10.50;;;;;;;12.66;100.00;100805.28;5131174;27;20225;-73
2021/09/04 01:24:31;;;;;;;16.27;9.23;;;;;;;12.73;100.00;100835.78;5130998;27;20179;-73
2021/09/04 01:26:59;;;;;;;13.07;10.37;;;;;;;12.67;100.00;100826.06;5131053;28;20276;-74
2021/09/04 01:29:24;;;;;;;15.33;9.57;;;;;;;12.79;100.00;100807.09;5131113;28;20636;-73
2021/09/04 01:31:50;;;;;;;12.03;10.30;;;;;;;12.65;100.00;100811.88;5131100;27;20182;-74
2021/09/04 01:34:15;;;;;;;15.37;10.20;;;;;;;12.60;100.00;100809.28;5130837;27;20263;-73
2021/09/04 01:36:41;;;;;;;19.07;10.47;;;;;;;12.60;100.00;100809.28;5131041;27;20181;-74
2021/09/04 01:39:08;;;;;;;10.17;9.03;;;;;;;12.59;100.00;100804.94;5130890;28;20536;-73
2021/09/04 01:41:34;;;;;;;15.97;10.50;;;;;;;12.61;100.00;100808.97;5132033;27;20211;-74
2021/09/04 01:44:00;;;;;;;15.17;9.67;;;;;;;12.67;100.00;100815.91;5134564;27;20180;-74
2021/09/04 01:46:26;;;;;;;18.00;10.13;;;;;;;12.96;100.00;100818.13;5134552;27;20188;-74
2021/09/04 01:48:52;;;;;;;18.33;9.63;;;;;;;13.01;100.00;100801.50;5134736;27;20172;-74
2021/09/04 01:51:17;;;;;;;16.27;11.10;;;;;;;12.93;100.00;100802.31;5134525;27;20172;-74
2021/09/04 01:53:43;;;;;;;14.67;10.37;;;;;;;12.92;100.00;100808.13;5134348;27;20470;-74
2021/09/04 01:56:10;;;;;;;14.20;10.17;;;;;;;12.86;100.00;100809.38;5134393;27;20169;-73
2021/09/04 01:58:35;;;;;;;20.50;9.53;;;;;;;12.61;100.00;100802.69;5134417;27;20245;-74
2021/09/04 02:01:01;;;;;;;13.27;10.73;;;;;;;12.54;100.00;100807.78;5134300;27;20616;-74
2021/09/04 02:03:26;;;;;;;14.03;10.43;;;;;;;12.57;100.00;100807.16;5134096;27;20614;-74
2021/09/04 02:05:52;;;;;;;22.47;10.83;;;;;;;12.54;100.00;100810.53;5134096;27;20173;-73
2021/09/04 02:08:17;;;;;;;14.30;9.27;;;;;;;12.52;100.00;100799.91;5134101;27;20172;-74
2021/09/04 02:10:43;;;;;;;16.43;9.57;;;;;;;12.51;100.00;100807.31;5134175;27;20179;-73
2021/09/04 02:13:08;;;;;;;19.53;10.37;;;;;;;12.60;100.00;100807.34;5133920;27;20732;-74
2021/09/04 02:15:35;;;;;;;15.23;10.30;;;;;;;12.65;100.00;100806.41;5133627;27;20237;-73
2021/09/04 02:18:01;;;;;;;11.83;9.87;;;;;;;12.69;100.00;100804.63;5134049;27;20551;-74
2021/09/04 02:20:26;;;;;;;17.13;9.03;;;;;;;13.00;100.00;100805.38;5134075;27;20259;-73
2021/09/04 02:22:52;;;;;;;10.70;8.90;;;;;;;13.10;100.00;100807.84;5133914;27;20209;-74
2021/09/04 02:25:17;;;;;;;13.20;9.10;;;;;;;13.09;100.00;100811.72;5133755;27;20203;-74
2021/09/04 02:27:42;;;;;;;17.17;9.73;;;;;;;13.28;100.00;100816.13;5133548;27;20208;-74
2021/09/04 02:30:09;;;;;;;13.70;9.70;;;;;;;13.02;100.00;100794.94;5133638;27;20180;-74
2021/09/04 02:32:34;;;;;;;13.33;9.80;;;;;;;12.90;100.00;100800.22;5133632;27;20257;-74
2021/09/04 02:35:00;;;;;;;17.23;9.97;;;;;;;13.18;100.00;100802.69;5133621;27;20209;-74
2021/09/04 02:37:25;;;;;;;14.03;9.40;;;;;;;13.08;100.00;100807.34;5133738;27;20573;-74
2021/09/04 02:39:51;;;;;;;17.33;9.23;;;;;;;13.27;100.00;100809.03;5114961;27;20172;-74
2021/09/04 02:42:16;;;;;;;12.63;7.87;;;;;;;13.19;100.00;100802.41;5133555;27;20179;-74
2021/09/04 02:44:42;;;;;;;17.13;9.60;;;;;;;13.35;100.00;100805.50;5133714;27;20673;-74
2021/09/04 02:47:07;;;;;;;11.93;8.60;;;;;;;13.30;100.00;100797.41;5114886;27;20257;-74
2021/09/04 02:49:33;;;;;;;24.30;9.77;;;;;;;13.27;100.00;100790.63;5133384;27;20212;-74
2021/09/04 02:51:58;;;;;;;11.67;8.50;;;;;;;13.39;100.00;100803.72;5132936;27;20200;-73
2021/09/04 02:54:24;;;;;;;18.97;9.87;;;;;;;13.47;100.00;100797.44;5114757;27;20645;-73
2021/09/04 02:56:49;;;;;;;11.27;8.43;;;;;;;13.56;100.00;100800.19;5133320;27;20168;-73
2021/09/04 02:59:14;;;;;;;12.03;8.43;;;;;;;13.43;100.00;100799.19;5133042;27;20180;-74
2021/09/04 03:01:39;;;;;;;12.00;9.13;;;;;;;13.45;100.00;100802.41;5133081;27;20241;-74
2021/09/04 03:04:05;;;;;;;11.93;9.40;;;;;;;13.36;100.00;100790.66;5132629;27;20188;-75
2021/09/04 03:06:30;;;;;;;12.37;8.33;;;;;;;13.37;100.00;100798.56;5132958;27;20204;-74
2021/09/04 03:08:55;;;;;;;13.43;8.60;;;;;;;13.38;100.00;100796.63;5114693;27;20173;-74
2021/09/04 03:11:22;;;;;;;12.33;8.07;;;;;;;13.38;100.00;100799.34;5132929;27;20191;-73
2021/09/04 03:13:48;;;;;;;11.13;8.20;;;;;;;13.38;100.00;100794.69;5132682;27;20252;-74
2021/09/04 03:16:13;;;;;;;12.50;7.87;;;;;;;13.33;100.00;100799.53;5132410;27;20173;-73
2021/09/04 03:18:39;;;;;;;15.37;8.87;;;;;;;13.26;100.00;100799.97;5132660;27;20173;-74
2021/09/04 03:21:04;;;;;;;11.67;7.67;;;;;;;13.25;100.00;100803.06;5132667;27;20228;-74
2021/09/04 03:23:29;;;;;;;10.30;8.30;;;;;;;13.19;100.00;100798.84;5132599;27;20169;-74
2021/09/04 03:25:55;;;;;;;10.70;7.83;;;;;;;13.19;100.00;100796.13;5132314;27;20262;-74
2021/09/04 03:28:20;;;;;;;13.47;7.63;;;;;;;13.27;100.00;100800.78;5132367;27;20175;-73
2021/09/04 03:30:45;;;;;;;18.43;10.10;;;;;;;13.26;100.00;100801.94;5132315;27;20546;-74
2021/09/04 03:33:11;;;;;;;16.37;8.20;;;;;;;13.30;100.00;100800.94;5132524;27;20180;-74
2021/09/04 03:35:36;;;;;;;15.77;9.33;;;;;;;13.07;100.00;100799.44;5132234;27;20584;-74
2021/09/04 03:38:01;;;;;;;16.07;8.73;;;;;;;13.02;100.00;100800.41;5132280;27;20175;-73
2021/09/04 03:40:27;;;;;;;10.30;8.47;;;;;;;12.98;100.00;100796.66;5132224;27;20179;-74
2021/09/04 03:42:52;;;;;;;9.67;8.03;;;;;;;12.85;100.00;100805.00;5132181;27;20193;-74
2021/09/04 03:45:18;;;;;;;9.17;7.53;;;;;;;12.73;100.00;100795.47;5132261;27;20575;-74
2021/09/04 03:47:43;;;;;;;8.17;7.10;;;;;;;12.67;100.00;100788.50;5132257;27;20446;-74
2021/09/04 03:50:09;;;;;;;10.60;7.47;;;;;;;12.90;100.00;100824.09;5132141;27;20690;-74
2021/09/04 03:52:34;;;;;;;12.87;7.83;;;;;;;12.77;100.00;100809.34;5132289;27;20169;-73
2021/09/04 03:55:00;;;;;;;10.90;7.07;;;;;;;12.73;100.00;100800.97;5132183;27;20251;-74
2021/09/04 03:57:25;;;;;;;10.50;6.73;;;;;;;12.77;100.00;100806.63;5131968;27;20263;-73
2021/09/04 03:59:50;;;;;;;8.13;6.30;;;;;;;12.81;100.00;100808.41;5132025;27;20562;-73
2021/09/04 04:02:16;;;;;;;7.67;6.87;;;;;;;12.84;100.00;100806.94;5131967;27;20169;-74
2021/09/04 04:04:41;;;;;;;7.90;7.03;;;;;;;12.98;100.00;100801.34;5131006;27;20180;-75
2021/09/04 04:07:06;;;;;;;9.07;7.13;;;;;;;12.93;100.00;100801.50;5131830;27;20704;-74
2021/09/04 04:09:32;;;;;;;10.47;7.33;;;;;;;12.88;100.00;100804.41;5131888;27;20256;-74
2021/09/04 04:11:57;;;;;;;6.70;5.73;;;;;;;12.92;100.00;100797.94;5131870;27;20169;-74
2021/09/04 04:14:22;;;;;;;7.83;6.30;;;;;;;12.88;100.00;100794.25;5131706;27;20301;-74
2021/09/04 04:16:48;;;;;;;9.23;6.73;;;;;;;12.81;100.00;100797.44;5131478;27;20632;-74
2021/09/04 04:19:13;;;;;;;9.73;6.17;;;;;;;12.70;100.00;100798.03;5131994;27;20168;-74
2021/09/04 04:21:39;;;;;;;10.00;6.80;;;;;;;12.77;100.00;100801.94;5113217;27;20187;-74
2021/09/04 04:24:04;;;;;;;10.53;7.40;;;;;;;12.57;100.00;100804.41;5131403;27;20180;-74
2021/09/04 04:26:29;;;;;;;8.17;6.50;;;;;;;12.55;100.00;100801.19;5131374;27;20196;-74
2021/09/04 04:28:55;;;;;;;8.60;6.87;;;;;;;12.63;100.00;100794.94;5131503;27;20237;-74
2021/09/04 04:31:20;;;;;;;7.73;6.83;;;;;;;12.68;100.00;100794.78;5131964;28;20195;-74
2021/09/04 04:33:46;;;;;;;8.77;7.37;;;;;;;12.55;100.00;100796.50;5141067;27;20188;-74
2021/09/04 04:36:11;;;;;;;15.80;8.30;;;;;;;12.45;100.00;100791.34;5135799;28;20168;-73
2021/09/04 04:38:36;;;;;;;13.37;7.90;;;;;;;12.59;100.00;100793.97;5114448;27;20187;-73
2021/09/04 04:41:03;;;;;;;12.07;8.20;;;;;;;12.46;100.00;100801.16;5131893;27;20260;-73
2021/09/04 04:43:30;;;;;;;10.00;7.53;;;;;;;12.44;100.00;100803.38;5131718;28;20669;-73
2021/09/04 04:45:55;;;;;;;11.67;6.30;;;;;;;12.47;100.00;100797.31;5131677;28;20164;-74
2021/09/04 04:48:20;;;;;;;13.07;7.10;;;;;;;12.45;100.00;100799.56;5131565;27;20241;-74
2021/09/04 04:50:46;;;;;;;8.97;7.23;;;;;;;12.45;100.00;100800.34;5131544;28;20628;-74
2021/09/04 04:53:12;;;;;;;9.47;6.53;;;;;;;12.45;100.00;100803.09;5131446;28;20694;-73
2021/09/04 04:55:38;;;;;;;7.73;6.93;;;;;;;12.40;100.00;100799.66;5131426;28;20636;-74
2021/09/04 04:58:03;;;;;;;10.50;6.60;;;;;;;12.63;100.00;100803.97;5131395;28;20630;-74
2021/09/04 05:00:28;;;;;;;11.13;7.23;;;;;;;12.44;100.00;100806.13;5131403;27;20222;-74
2021/09/04 05:02:54;;;;;;;7.80;6.97;;;;;;;12.49;100.00;100815.03;5131428;27;20173;-74
2021/09/04 05:05:20;;;;;;;11.50;6.50;;;;;;;12.39;100.00;100811.75;5131120;28;20242;-74
2021/09/04 05:07:45;;;;;;;11.53;7.10;;;;;;;12.34;100.00;100811.91;5112623;28;20542;-74
2021/09/04 05:10:11;;;;;;;10.20;6.73;;;;;;;12.38;100.00;100810.94;5131362;27;20175;-73
2021/09/04 05:12:36;;;;;;;9.03;6.40;;;;;;;12.39;100.00;100815.31;5131242;28;20173;-73
2021/09/04 05:15:01;;;;;;;9.53;6.67;;;;;;;12.44;100.00;100845.34;5131293;27;20165;-74
2021/09/04 05:17:27;;;;;;;7.73;6.93;;;;;;;12.44;100.00;100819.81;5135012;27;20177;-74
2021/09/04 05:19:52;;;;;;;6.80;5.47;;;;;;;12.41;100.00;100813.06;5135166;27;20256;-73
2021/09/04 05:22:17;;;;;;;9.27;5.17;;;;;;;12.40;100.00;100814.19;5135043;27;20164;-73
2021/09/04 05:24:43;;;;;;;8.70;5.00;;;;;;;12.42;100.00;100811.13;5134982;27;20180;-74
2021/09/04 05:27:08;;;;;;;9.27;4.90;;;;;;;12.63;100.00;100809.47;5134891;27;20616;-74
2021/09/04 05:29:34;;;;;;;7.03;4.87;;;;;;;12.56;100.00;100809.09;5135342;27;20280;-74
2021/09/04 05:31:59;;;;;;;6.33;5.60;;;;;;;12.44;100.00;100815.19;5134890;27;20172;-73
2021/09/04 05:34:24;;;;;;;5.20;4.70;;;;;;;12.57;100.00;100818.13;5134606;27;20711;-73
2021/09/04 05:36:50;;;;;;;9.60;6.57;;;;;;;12.67;100.00;100812.38;5134760;27;20179;-73
2021/09/04 05:39:15;;;;;;;6.50;5.00;;;;;;;12.62;100.00;100812.53;5134742;27;20176;-73
2021/09/04 05:41:40;;;;;;;6.17;5.47;;;;;;;12.43;100.00;100816.28;5134645;27;20181;-73
2021/09/04 05:44:06;;;;;;;6.03;5.37;;;;;;;12.48;100.00;100821.66;5134498;27;20172;-73
2021/09/04 05:46:32;;;;;;;6.73;4.83;;;;;;;12.52;100.00;100817.16;5134583;27;20848;-73
2021/09/04 05:48:57;;;;;;;6.63;4.20;;;;;;;12.59;100.00;100824.13;5134570;27;20196;-73
2021/09/04 05:51:22;;;;;;;7.57;4.57;;;;;;;12.57;100.00;100834.56;5134556;27;20180;-74
2021/09/04 05:53:48;;;;;;;6.93;4.40;;;;;;;12.43;100.00;100834.66;5115900;27;20223;-74
2021/09/04 05:56:13;;;;;;;5.83;4.43;;;;;;;12.72;100.00;100825.94;5134453;27;20680;-73
2021/09/04 05:58:39;;;;;;;4.63;4.03;;;;;;;12.78;100.00;100830.16;5134452;27;20198;-73
2021/09/04 06:01:05;;;;;;;5.80;3.70;;;;;;;12.68;100.00;100833.19;5115984;27;20677;-74
2021/09/04 06:03:30;;;;;;;4.10;3.70;;;;;;;12.65;100.00;100836.56;5133912;27;20384;-73
2021/09/04 06:05:57;;;;;;;4.87;3.60;;;;;;;12.77;100.00;100829.34;5129206;27;20553;-73
2021/09/04 06:08:23;;;;;;;4.53;3.23;;;;;;;13.00;100.00;100827.31;5126918;27;20173;-74
2021/09/04 06:10:49;;;;;;;4.97;4.00;;;;;;;12.81;100.00;100829.53;5134189;27;20180;-74
2021/09/04 06:13:14;;;;;;;3.63;3.23;;;;;;;12.89;100.00;100820.53;5133948;27;20165;-75
2021/09/04 06:15:39;;;;;;;3.50;3.20;;;;;;;12.94;100.00;100831.34;5133591;27;20168;-74
2021/09/04 06:18:05;;;;;;;4.37;3.20;;;;;;;12.99;100.00;100831.19;5134131;27;20279;-75
2021/09/04 06:20:30;;;;;;;6.17;3.60;;;;;;;12.83;100.00;100824.53;5134017;27;20164;-75
2021/09/04 06:22:56;;;;;;;3.50;3.00;;;;;;;12.88;100.00;100832.63;5133898;27;20196;-77
2021/09/04 06:25:21;;;;;;;5.20;3.10;;;;;;;12.93;100.00;100832.47;5133583;27;20243;-76
2021/09/04 06:27:48;;;;;;;6.07;3.70;;;;;;;12.81;100.00;100835.00;5132879;27;20192;-77
2021/09/04 06:30:13;;;;;;;3.87;3.50;;;;;;;12.81;100.00;100829.53;5133805;27;20693;-77
2021/09/04 06:32:39;;;;;;;4.10;3.40;;;;;;;12.68;100.00;100833.19;5133738;27;20206;-77
2021/09/04 06:35:04;;;;;;;6.03;3.77;;;;;;;12.69;100.00;100829.31;5133515;27;20292;-78
2021/09/04 06:37:30;;;;;;;6.07;4.03;;;;;;;12.75;100.00;100830.81;5133601;27;20173;-78
2021/09/04 06:39:55;;;;;;;4.53;3.63;;;;;;;13.08;100.00;100837.53;5133654;27;20221;-74
2021/09/04 06:42:20;;;;;;;6.47;3.80;;;;;;;13.17;100.00;100845.78;5133462;27;20536;-74
2021/09/04 06:44:46;;;;;;;4.50;3.70;;;;;;;12.96;100.00;100840.06;5133423;27;20197;-74
2021/09/04 06:47:11;;;;;;;6.20;3.33;;;;;;;12.94;100.00;100842.31;5133438;27;20275;-74
2021/09/04 06:49:36;;;;;;;3.63;3.17;;;;;;;12.89;100.00;100839.72;5133724;27;20175;-73
2021/09/04 06:52:02;;;;;;;4.80;3.93;;;;;;;12.89;100.00;100845.22;5133265;27;20172;-73
2021/09/04 06:54:27;;;;;;;4.43;4.03;;;;;;;12.91;100.00;100837.47;5133205;27;20663;-74
2021/09/04 06:56:53;;;;;;;4.00;3.47;;;;;;;13.01;100.00;100833.63;5133026;27;20223;-74
2021/09/04 06:59:19;;;;;;;5.53;3.90;;;;;;;12.99;100.00;100833.94;5133056;27;20176;-74
2021/09/04 07:01:44;;;;;;;5.70;3.20;;;;;;;13.09;100.00;100838.34;5133079;27;20176;-73
2021/09/04 07:04:10;;;;;;;6.97;3.93;;;;;;;13.16;100.00;100837.84;5132739;27;20195;-74
2021/09/04 07:06:36;;;;;;;5.43;3.43;;;;;;;13.06;100.00;100838.97;5132960;27;20242;-74
2021/09/04 07:09:02;;;;;;;3.37;3.07;;;;;;;13.06;100.00;100837.03;5132924;27;20168;-74
2021/09/04 07:11:28;;;;;;;4.07;3.13;;;;;;;13.05;100.00;100837.38;5132927;27;20174;-74
2021/09/04 07:13:53;;;;;;;3.57;3.10;;;;;;;13.06;100.00;100839.78;5132586;27;20164;-74
2021/09/04 07:16:20;;;;;;;4.07;2.77;;;;;;;13.12;100.00;100840.44;5132700;27;20176;-74
2021/09/04 07:18:46;;;;;;;4.27;2.90;;;;;;;13.15;100.00;100845.28;5132709;27;20169;-74
2021/09/04 07:21:11;;;;;;;4.00;3.20;;;;;;;13.16;100.00;100844.16;5132668;27;20229;-74
2021/09/04 07:23:36;;;;;;;3.73;2.87;;;;;;;13.15;100.00;100847.22;5132555;27;20177;-75
2021/09/04 07:26:02;;;;;;;2.77;2.50;;;;;;;13.17;100.00;100848.53;5132470;27;20175;-74
2021/09/04 07:28:27;;;;;;;3.40;3.10;;;;;;;13.09;100.00;100852.84;5132878;27;20215;-74
2021/09/04 07:30:53;;;;;;;4.23;3.40;;;;;;;13.15;100.00;100850.75;5132553;27;20202;-74
2021/09/04 07:33:19;;;;;;;4.87;3.40;;;;;;;13.23;100.00;100855.50;5114296;27;20184;-77
2021/09/04 07:35:44;;;;;;;3.07;2.87;;;;;;;13.24;100.00;100862.63;5132343;27;20229;-75
2021/09/04 07:38:09;;;;;;;2.80;2.50;;;;;;;13.25;100.00;100860.69;5132369;27;20633;-74
2021/09/04 07:40:35;;;;;;;3.17;2.20;;;;;;;13.25;100.00;100866.16;5132307;27;20196;-75
2021/09/04 07:43:02;;;;;;;4.00;3.07;;;;;;;13.39;100.00;100866.84;5114055;27;20196;-75
2021/09/04 07:45:28;;;;;;;3.40;2.80;;;;;;;13.26;99.72;100865.84;5132271;27;20168;-74
2021/09/04 07:47:53;;;;;;;4.27;3.07;;;;;;;13.19;99.81;100857.28;5132450;27;20551;-74
2021/09/04 07:50:19;;;;;;;5.13;2.10;;;;;;;13.23;100.00;100861.00;5113946;27;20213;-74
2021/09/04 07:52:44;;;;;;;5.23;2.73;;;;;;;13.30;100.00;100875.03;5132217;27;20259;-75
2021/09/04 07:55:10;;;;;;;6.17;2.80;;;;;;;13.28;100.00;100862.78;5131970;27;20169;-74
2021/09/04 07:57:35;;;;;;;4.27;2.80;;;;;;;13.35;99.90;100866.69;5132185;27;20175;-75
2021/09/04 08:00:00;;;;;;;6.97;3.20;;;;;;;13.30;97.47;100866.00;5132072;27;20733;-75
2021/09/04 08:02:26;;;;;;;3.30;2.93;;;;;;;13.57;99.35;100870.41;5132370;27;20177;-74
2021/09/04 08:04:51;;;;;;;3.47;2.87;;;;;;;13.49;97.66;101041.44;5113356;27;20232;-75
2021/09/04 08:07:16;;;;;;;3.33;3.00;;;;;;;13.40;96.68;100789.66;5131884;27;20200;-74
2021/09/04 08:09:43;;;;;;;4.13;2.80;;;;;;;13.50;97.09;100890.13;5131881;27;20255;-75
2021/09/04 08:12:08;;;;;;;4.93;2.70;;;;;;;13.56;95.08;100866.88;5132042;27;20640;-74
2021/09/04 08:14:34;;;;;;;5.53;3.23;;;;;;;13.74;96.59;100881.41;5131626;27;20184;-75
2021/09/04 08:16:59;;;;;;;3.17;2.90;;;;;;;13.76;95.82;100879.19;5131983;27;20172;-75
2021/09/04 08:19:24;;;;;;;4.13;3.13;;;;;;;14.00;95.47;100865.75;5131841;27;20172;-74
2021/09/04 08:21:50;;;;;;;2.40;2.17;;;;;;;14.34;95.89;100866.88;5129483;27;21587;-75
2021/09/04 08:24:18;;;;;;;5.30;2.83;;;;;;;14.35;92.92;100867.69;5131150;27;20620;-74
2021/09/04 08:26:43;;;;;;;4.37;2.73;;;;;;;14.29;92.76;100867.84;5123548;27;20571;-74
2021/09/04 08:29:10;;;;;;;4.67;2.63;;;;;;;14.36;94.05;100859.09;5131617;28;20198;-76
2021/09/04 08:31:35;;;;;;;4.20;2.53;;;;;;;14.36;94.82;100867.34;5131989;28;20524;-79
2021/09/04 08:34:01;;;;;;;4.27;3.13;;;;;;;14.55;95.92;100865.06;5132122;28;20180;-82
2021/09/04 08:36:26;;;;;;;5.73;2.37;;;;;;;14.57;96.03;100864.72;5131539;28;20658;-79
2021/09/04 08:38:51;;;;;;;6.10;3.07;;;;;;;14.39;94.67;100857.63;5131283;28;20195;-79
2021/09/04 08:41:17;;;;;;;6.27;2.80;;;;;;;14.18;96.46;100860.28;5131480;28;20211;-78
2021/09/04 08:43:42;;;;;;;3.83;3.50;;;;;;;13.99;97.40;100863.34;5131271;28;20172;-78
2021/09/04 08:46:11;;;;;;;6.07;3.27;;;;;;;14.12;97.48;100873.34;5131455;28;20212;-78
2021/09/04 08:48:37;;;;;;;6.17;2.97;;;;;;;14.25;96.30;100871.56;5131689;28;20181;-79
2021/09/04 08:51:03;;;;;;;3.27;2.93;;;;;;;14.19;96.15;100878.38;5133115;27;20528;-78
2021/09/04 08:53:29;;;;;;;3.87;3.00;;;;;;;14.07;95.42;100876.28;5135958;27;20210;-76
2021/09/04 08:55:54;;;;;;;3.93;2.93;;;;;;;14.23;94.84;100874.63;5135588;27;20176;-74
2021/09/04 08:58:19;;;;;;;4.77;3.13;;;;;;;14.47;95.96;100876.91;5135516;27;20263;-74
2021/09/04 09:00:46;;;;;;;4.20;2.97;;;;;;;14.47;95.52;100876.09;5135508;27;20297;-76
2021/09/04 09:03:26;;;;;;;4.97;3.37;;;;;;;14.16;94.79;100882.56;5135488;27;20659;-74
2021/09/04 09:05:54;;;;;;;8.73;3.17;;;;;;;14.27;96.48;100885.78;5135553;27;20177;-75
2021/09/04 09:08:25;;;;;;;5.80;3.10;;;;;;;14.17;96.50;100881.41;5116791;27;20605;-74
2021/09/04 09:10:52;;;;;;;4.67;3.70;;;;;;;14.05;94.59;100880.50;5135416;27;20309;-75
2021/09/04 09:13:20;;;;;;;3.13;2.87;;;;;;;14.38;95.75;100880.75;5116823;27;20275;-75
2021/09/04 09:15:46;;;;;;;3.90;3.53;;;;;;;14.18;93.32;100883.06;5134772;27;20188;-74
2021/09/04 09:18:16;;;;;;;4.13;3.27;;;;;;;14.36;94.46;100894.03;5135047;27;20212;-75
2021/09/04 09:20:46;;;;;;;5.07;4.03;;;;;;;14.16;93.69;100887.25;5135080;27;20173;-75
2021/09/04 09:23:17;;;;;;;5.23;3.60;;;;;;;14.20;93.74;100886.28;5135038;27;20544;-74
2021/09/04 09:25:44;;;;;;;3.93;3.30;;;;;;;14.37;94.06;100885.47;5135180;27;20160;-75
2021/09/04 09:28:14;;;;;;;5.03;3.83;;;;;;;14.65;92.77;100888.66;5135007;27;20201;-74
2021/09/04 09:30:42;;;;;;;7.73;4.00;;;;;;;14.92;91.91;100889.41;5135065;27;20250;-74
2021/09/04 09:33:11;;;;;;;5.80;3.80;;;;;;;14.87;88.73;100866.41;5134941;27;20648;-75
2021/09/04 09:35:42;;;;;;;5.47;3.13;;;;;;;15.14;88.74;100873.41;5134595;27;20256;-74
2021/09/04 09:38:10;;;;;;;3.43;3.13;;;;;;;15.26;89.14;100878.22;5134719;27;20179;-74
2021/09/04 09:40:37;;;;;;;4.60;3.20;;;;;;;15.21;88.83;100872.91;5134501;27;20168;-75
2021/09/04 09:43:24;;;;;;;9.50;3.80;;;;;;;14.73;91.07;100878.75;5134922;27;20179;-74
2021/09/04 09:45:51;;;;;;;3.67;3.30;;;;;;;14.98;92.01;100866.06;5116284;27;20173;-74
2021/09/04 09:48:32;;;;;;;3.40;3.10;;;;;;;15.29;91.25;100874.78;5134448;27;20219;-74
2021/09/04 09:51:05;;;;;;;4.47;4.07;;;;;;;15.35;88.98;100873.47;5134384;27;20171;-75
2021/09/04 09:53:31;;;;;;;7.83;3.57;;;;;;;15.73;90.25;100873.41;5116027;27;20176;-74
2021/09/04 09:55:58;;;;;;;6.03;4.70;;;;;;;15.46;86.05;100874.69;5131433;27;20268;-74
2021/09/04 09:58:25;;;;;;;5.30;4.80;;;;;;;14.88;87.59;100872.72;5129031;27;20195;-74
2021/09/04 10:00:54;;;;;;;10.33;5.63;;;;;;;14.97;87.63;100869.94;5131827;27;20249;-74
2021/09/04 10:03:23;;;;;;;6.33;5.73;;;;;;;15.03;86.77;100869.41;5132737;27;20276;-74
2021/09/04 10:05:48;;;;;;;5.90;5.30;;;;;;;15.15;87.67;100866.78;5134061;27;20692;-75
2021/09/04 10:08:24;;;;;;;7.27;6.07;;;;;;;15.53;87.90;100865.09;5133968;27;20204;-75
2021/09/04 10:10:50;;;;;;;7.00;5.83;;;;;;;15.67;86.57;100862.94;5134248;27;20157;-75
2021/09/04 10:13:16;;;;;;;6.73;6.03;;;;;;;15.72;86.47;100869.03;5134083;27;20168;-75
2021/09/04 10:15:51;;;;;;;7.00;6.30;;;;;;;15.82;86.86;100865.09;5133376;27;20204;-74
2021/09/04 10:18:20;;;;;;;7.27;6.57;;;;;;;15.49;83.98;100862.22;5134046;27;20168;-75
2021/09/04 10:20:46;;;;;;;8.47;7.57;;;;;;;15.44;87.82;100862.41;5134041;27;20535;-75
2021/09/04 10:23:35;;;;;;;13.73;7.77;;;;;;;15.09;nan;100920.41;5134058;27;20169;-74
2021/09/04 10:26:26;;;;;;;8.70;7.90;;;;;;;15.13;87.07;100912.28;5112557;27;20534;-74
2021/09/04 10:29:07;;;;;;;7.50;6.80;;;;;;;15.52;87.54;100885.53;5116914;27;20176;-76
2021/09/04 10:32:04;;;;;;;15.40;8.23;;;;;;;15.91;84.25;100876.84;5133852;27;20160;-75
2021/09/04 10:34:33;;;;;;;17.87;7.87;;;;;;;15.74;82.76;100865.94;5133587;27;20203;-75
2021/09/04 10:36:59;;;;;;;8.93;8.07;;;;;;;15.72;83.97;100869.03;5133691;27;20165;-75
2021/09/04 10:39:44;;;;;;;13.30;8.83;;;;;;;15.76;82.46;100856.19;5115080;27;20538;-75
2021/09/04 10:42:10;;;;;;;9.90;8.90;;;;;;;15.90;82.69;100855.13;5133662;27;20160;-75
2021/09/04 10:44:39;;;;;;;10.03;9.03;;;;;;;16.02;80.58;100855.19;5133244;27;20165;-74
2021/09/04 10:47:07;;;;;;;8.77;7.80;;;;;;;16.12;79.07;100852.00;5133530;27;20203;-76
2021/09/04 10:49:45;;;;;;;8.77;7.97;;;;;;;16.41;81.75;100858.53;5133344;27;20194;-74
2021/09/04 10:52:10;;;;;;;8.53;7.57;;;;;;;16.66;79.94;100854.69;5133527;27;20175;-77
2021/09/04 10:54:40;;;;;;;9.70;8.47;;;;;;;16.33;77.89;100855.53;5133185;27;20230;-76
2021/09/04 10:57:16;;;;;;;9.30;8.40;;;;;;;16.09;81.39;100854.66;5114893;27;20262;-77
2021/09/04 11:00:03;;;;;;;10.47;9.23;;;;;;;16.11;82.47;100853.16;5133439;27;20866;-77
2021/09/04 11:02:41;;;;;;;10.43;9.33;;;;;;;15.71;81.97;100856.41;5133271;27;20172;-77
2021/09/04 11:05:28;;;;;;;11.30;10.30;;;;;;;15.68;81.15;100864.53;5132919;27;20179;-76
2021/09/04 11:08:18;;;;;;;10.27;9.27;;;;;;;15.76;82.14;100864.47;5132915;27;20188;-76
2021/09/04 11:10:46;;;;;;;10.03;9.10;;;;;;;16.04;79.68;100858.41;5133111;27;20161;-76
2021/09/04 11:13:11;;;;;;;11.13;9.43;;;;;;;16.16;80.84;100854.88;5132711;27;20172;-76